sensor_id;sensor_type;location;lat;lon;timestamp;P1;durP1;ratioP1;P2;durP2;ratioP2
59649;SDS011;46162;57.568;25.814;2024-03-02T00:02:15;5.65;;;2.50;;
59649;SDS011;46162;57.568;25.814;2024-03-02T00:04:46;6.38;;;2.72;;
59649;SDS011;46162;57.568;25.814;2024-03-02T00:07:15;4.53;;;2.30;;
59649;SDS011;46162;57.568;25.814;2024-03-02T00:10:26;4.45;;;2.17;;
59649;SDS011;46162;57.568;25.814;2024-03-02T00:13:08;4.88;;;2.58;;
59649;SDS011;46162;57.568;25.814;2024-03-02T00:15:46;5.85;;;2.85;;
59649;SDS011;46162;57.568;25.814;2024-03-02T00:18:36;5.30;;;2.55;;
59649;SDS011;46162;57.568;25.814;2024-03-02T00:24:19;4.35;;;1.83;;
59649;SDS011;46162;57.568;25.814;2024-03-02T00:27:02;4.53;;;2.40;;
59649;SDS011;46162;57.568;25.814;2024-03-02T00:29:44;5.43;;;2.45;;
59649;SDS011;46162;57.568;25.814;2024-03-02T00:32:18;5.03;;;2.47;;
59649;SDS011;46162;57.568;25.814;2024-03-02T00:34:49;4.72;;;1.88;;
59649;SDS011;46162;57.568;25.814;2024-03-02T00:37:36;4.65;;;2.28;;
59649;SDS011;46162;57.568;25.814;2024-03-02T00:40:06;4.85;;;2.55;;
59649;SDS011;46162;57.568;25.814;2024-03-02T00:49:30;4.80;;;2.67;;
59649;SDS011;46162;57.568;25.814;2024-03-02T00:52:16;5.47;;;2.78;;
59649;SDS011;46162;57.568;25.814;2024-03-02T00:55:17;4.72;;;2.58;;
59649;SDS011;46162;57.568;25.814;2024-03-02T00:58:20;4.63;;;2.28;;
59649;SDS011;46162;57.568;25.814;2024-03-02T01:00:54;5.80;;;2.78;;
59649;SDS011;46162;57.568;25.814;2024-03-02T01:03:23;4.82;;;2.83;;
59649;SDS011;46162;57.568;25.814;2024-03-02T01:06:14;5.97;;;2.80;;
59649;SDS011;46162;57.568;25.814;2024-03-02T01:08:55;5.32;;;2.70;;
59649;SDS011;46162;57.568;25.814;2024-03-02T01:11:55;5.55;;;3.10;;
59649;SDS011;46162;57.568;25.814;2024-03-02T01:14:27;6.72;;;3.28;;
59649;SDS011;46162;57.568;25.814;2024-03-02T01:17:13;5.38;;;2.92;;
59649;SDS011;46162;57.568;25.814;2024-03-02T01:19:48;5.43;;;3.03;;
59649;SDS011;46162;57.568;25.814;2024-03-02T01:23:06;6.15;;;3.70;;
59649;SDS011;46162;57.568;25.814;2024-03-02T01:25:53;5.53;;;3.13;;
59649;SDS011;46162;57.568;25.814;2024-03-02T01:28:59;6.75;;;3.30;;
59649;SDS011;46162;57.568;25.814;2024-03-02T01:32:33;6.45;;;4.05;;
59649;SDS011;46162;57.568;25.814;2024-03-02T01:35:09;7.07;;;4.40;;
59649;SDS011;46162;57.568;25.814;2024-03-02T01:37:54;7.72;;;4.43;;
59649;SDS011;46162;57.568;25.814;2024-03-02T01:41:19;7.17;;;4.73;;
59649;SDS011;46162;57.568;25.814;2024-03-02T01:44:56;12.88;;;6.03;;
59649;SDS011;46162;57.568;25.814;2024-03-02T01:47:40;10.05;;;5.72;;
59649;SDS011;46162;57.568;25.814;2024-03-02T01:53:48;9.55;;;6.03;;
59649;SDS011;46162;57.568;25.814;2024-03-02T01:56:38;13.48;;;7.15;;
59649;SDS011;46162;57.568;25.814;2024-03-02T01:59:29;10.40;;;6.88;;
59649;SDS011;46162;57.568;25.814;2024-03-02T02:05:47;12.82;;;7.43;;
59649;SDS011;46162;57.568;25.814;2024-03-02T02:16:38;11.85;;;6.97;;
59649;SDS011;46162;57.568;25.814;2024-03-02T02:22:32;13.35;;;7.38;;
59649;SDS011;46162;57.568;25.814;2024-03-02T02:25:42;17.42;;;8.02;;
59649;SDS011;46162;57.568;25.814;2024-03-02T02:28:55;14.27;;;8.48;;
59649;SDS011;46162;57.568;25.814;2024-03-02T02:38:18;15.13;;;8.98;;
59649;SDS011;46162;57.568;25.814;2024-03-02T02:42:20;13.65;;;7.85;;
59649;SDS011;46162;57.568;25.814;2024-03-02T02:45:03;13.35;;;8.02;;
59649;SDS011;46162;57.568;25.814;2024-03-02T02:47:54;13.40;;;8.35;;
59649;SDS011;46162;57.568;25.814;2024-03-02T02:50:48;14.50;;;8.95;;
59649;SDS011;46162;57.568;25.814;2024-03-02T02:53:19;15.75;;;9.25;;
59649;SDS011;46162;57.568;25.814;2024-03-02T02:56:08;19.83;;;8.87;;
59649;SDS011;46162;57.568;25.814;2024-03-02T03:01:42;14.07;;;8.85;;
59649;SDS011;46162;57.568;25.814;2024-03-02T03:04:17;16.23;;;9.77;;
59649;SDS011;46162;57.568;25.814;2024-03-02T03:06:53;16.13;;;9.60;;
59649;SDS011;46162;57.568;25.814;2024-03-02T03:09:24;17.35;;;10.07;;
59649;SDS011;46162;57.568;25.814;2024-03-02T03:11:53;15.95;;;9.68;;
59649;SDS011;46162;57.568;25.814;2024-03-02T03:14:22;14.95;;;9.43;;
59649;SDS011;46162;57.568;25.814;2024-03-02T03:16:54;14.27;;;8.98;;
59649;SDS011;46162;57.568;25.814;2024-03-02T03:19:23;16.38;;;9.90;;
59649;SDS011;46162;57.568;25.814;2024-03-02T03:22:57;14.98;;;9.60;;
59649;SDS011;46162;57.568;25.814;2024-03-02T03:25:44;15.20;;;8.65;;
59649;SDS011;46162;57.568;25.814;2024-03-02T03:28:53;14.43;;;9.27;;
59649;SDS011;46162;57.568;25.814;2024-03-02T03:31:46;15.70;;;9.48;;
59649;SDS011;46162;57.568;25.814;2024-03-02T03:34:19;17.52;;;10.10;;
59649;SDS011;46162;57.568;25.814;2024-03-02T03:37:18;15.30;;;9.27;;
59649;SDS011;46162;57.568;25.814;2024-03-02T03:43:43;15.33;;;8.67;;
59649;SDS011;46162;57.568;25.814;2024-03-02T03:46:28;17.17;;;8.35;;
59649;SDS011;46162;57.568;25.814;2024-03-02T03:48:57;16.63;;;9.95;;
59649;SDS011;46162;57.568;25.814;2024-03-02T03:51:48;16.50;;;9.55;;
59649;SDS011;46162;57.568;25.814;2024-03-02T03:54:40;16.33;;;8.27;;
59649;SDS011;46162;57.568;25.814;2024-03-02T03:57:32;16.43;;;9.07;;
59649;SDS011;46162;57.568;25.814;2024-03-02T04:00:32;17.48;;;9.52;;
59649;SDS011;46162;57.568;25.814;2024-03-02T04:03:17;16.88;;;8.27;;
59649;SDS011;46162;57.568;25.814;2024-03-02T04:05:51;17.40;;;9.63;;
59649;SDS011;46162;57.568;25.814;2024-03-02T04:08:43;15.95;;;9.20;;
59649;SDS011;46162;57.568;25.814;2024-03-02T04:11:26;18.58;;;9.27;;
59649;SDS011;46162;57.568;25.814;2024-03-02T04:14:35;15.98;;;10.18;;
59649;SDS011;46162;57.568;25.814;2024-03-02T04:17:44;19.73;;;9.73;;
59649;SDS011;46162;57.568;25.814;2024-03-02T04:20:13;14.60;;;9.50;;
59649;SDS011;46162;57.568;25.814;2024-03-02T04:22:55;16.48;;;10.57;;
59649;SDS011;46162;57.568;25.814;2024-03-02T04:25:28;17.50;;;11.90;;
59649;SDS011;46162;57.568;25.814;2024-03-02T04:27:57;14.43;;;8.20;;
59649;SDS011;46162;57.568;25.814;2024-03-02T04:33:50;16.98;;;10.48;;
59649;SDS011;46162;57.568;25.814;2024-03-02T04:36:31;15.93;;;9.13;;
59649;SDS011;46162;57.568;25.814;2024-03-02T04:41:59;17.90;;;10.50;;
59649;SDS011;46162;57.568;25.814;2024-03-02T04:44:48;16.33;;;10.43;;
59649;SDS011;46162;57.568;25.814;2024-03-02T04:54:55;15.45;;;9.95;;
59649;SDS011;46162;57.568;25.814;2024-03-02T04:57:52;16.75;;;11.40;;
59649;SDS011;46162;57.568;25.814;2024-03-02T05:03:50;18.30;;;11.00;;
59649;SDS011;46162;57.568;25.814;2024-03-02T05:06:24;16.48;;;9.95;;
59649;SDS011;46162;57.568;25.814;2024-03-02T05:09:06;18.95;;;11.05;;
59649;SDS011;46162;57.568;25.814;2024-03-02T05:11:38;18.00;;;11.20;;
59649;SDS011;46162;57.568;25.814;2024-03-02T05:15:03;17.67;;;10.93;;
59649;SDS011;46162;57.568;25.814;2024-03-02T05:17:50;17.33;;;11.18;;
59649;SDS011;46162;57.568;25.814;2024-03-02T05:20:43;16.73;;;11.38;;
59649;SDS011;46162;57.568;25.814;2024-03-02T05:23:35;20.48;;;10.90;;
59649;SDS011;46162;57.568;25.814;2024-03-02T05:26:35;16.92;;;10.18;;
59649;SDS011;46162;57.568;25.814;2024-03-02T05:29:09;18.05;;;11.13;;
59649;SDS011;46162;57.568;25.814;2024-03-02T05:36:21;17.33;;;10.07;;
59649;SDS011;46162;57.568;25.814;2024-03-02T05:38:52;16.33;;;9.90;;
59649;SDS011;46162;57.568;25.814;2024-03-02T05:41:37;16.02;;;9.73;;
59649;SDS011;46162;57.568;25.814;2024-03-02T05:47:43;18.85;;;10.18;;
59649;SDS011;46162;57.568;25.814;2024-03-02T05:50:23;17.48;;;10.68;;
59649;SDS011;46162;57.568;25.814;2024-03-02T05:52:59;19.08;;;11.57;;
59649;SDS011;46162;57.568;25.814;2024-03-02T05:58:04;17.92;;;10.07;;
59649;SDS011;46162;57.568;25.814;2024-03-02T06:00:56;18.48;;;9.57;;
59649;SDS011;46162;57.568;25.814;2024-03-02T06:03:29;17.52;;;10.93;;
59649;SDS011;46162;57.568;25.814;2024-03-02T06:06:43;18.70;;;10.48;;
59649;SDS011;46162;57.568;25.814;2024-03-02T06:13:13;15.68;;;10.30;;
59649;SDS011;46162;57.568;25.814;2024-03-02T06:16:07;16.42;;;10.23;;
59649;SDS011;46162;57.568;25.814;2024-03-02T06:18:40;17.77;;;10.45;;
59649;SDS011;46162;57.568;25.814;2024-03-02T06:21:40;17.00;;;10.38;;
59649;SDS011;46162;57.568;25.814;2024-03-02T06:24:13;17.48;;;10.75;;
59649;SDS011;46162;57.568;25.814;2024-03-02T06:26:49;17.93;;;10.77;;
59649;SDS011;46162;57.568;25.814;2024-03-02T06:30:21;18.60;;;11.20;;
59649;SDS011;46162;57.568;25.814;2024-03-02T06:35:58;16.40;;;10.00;;
59649;SDS011;46162;57.568;25.814;2024-03-02T06:38:36;20.90;;;11.77;;
59649;SDS011;46162;57.568;25.814;2024-03-02T06:41:36;20.20;;;10.55;;
59649;SDS011;46162;57.568;25.814;2024-03-02T06:44:37;19.63;;;11.18;;
59649;SDS011;46162;57.568;25.814;2024-03-02T06:47:11;18.25;;;10.35;;
59649;SDS011;46162;57.568;25.814;2024-03-02T06:52:53;21.77;;;12.07;;
59649;SDS011;46162;57.568;25.814;2024-03-02T06:55:26;23.67;;;11.45;;
59649;SDS011;46162;57.568;25.814;2024-03-02T06:58:21;21.10;;;11.57;;
59649;SDS011;46162;57.568;25.814;2024-03-02T07:01:16;19.70;;;11.20;;
59649;SDS011;46162;57.568;25.814;2024-03-02T07:04:08;20.40;;;11.93;;
59649;SDS011;46162;57.568;25.814;2024-03-02T07:22:02;22.35;;;12.77;;
59649;SDS011;46162;57.568;25.814;2024-03-02T07:45:03;18.52;;;12.18;;
59649;SDS011;46162;57.568;25.814;2024-03-02T07:47:32;21.15;;;12.73;;
59649;SDS011;46162;57.568;25.814;2024-03-02T07:51:23;17.33;;;11.38;;
59649;SDS011;46162;57.568;25.814;2024-03-02T07:55:22;18.15;;;11.63;;
59649;SDS011;46162;57.568;25.814;2024-03-02T08:04:28;22.02;;;14.00;;
59649;SDS011;46162;57.568;25.814;2024-03-02T08:08:05;20.35;;;14.00;;
59649;SDS011;46162;57.568;25.814;2024-03-02T08:19:47;19.33;;;14.20;;
59649;SDS011;46162;57.568;25.814;2024-03-02T08:23:03;18.23;;;13.75;;
59649;SDS011;46162;57.568;25.814;2024-03-02T08:26:30;15.30;;;11.57;;
59649;SDS011;46162;57.568;25.814;2024-03-02T08:29:39;17.30;;;12.60;;
59649;SDS011;46162;57.568;25.814;2024-03-02T08:32:17;18.48;;;13.55;;
59649;SDS011;46162;57.568;25.814;2024-03-02T08:35:42;15.90;;;11.98;;
59649;SDS011;46162;57.568;25.814;2024-03-02T08:40:58;16.13;;;12.40;;
59649;SDS011;46162;57.568;25.814;2024-03-02T08:43:44;17.50;;;13.32;;
59649;SDS011;46162;57.568;25.814;2024-03-02T08:46:17;16.25;;;12.70;;
59649;SDS011;46162;57.568;25.814;2024-03-02T08:48:53;15.95;;;12.38;;
59649;SDS011;46162;57.568;25.814;2024-03-02T08:51:41;15.60;;;10.70;;
59649;SDS011;46162;57.568;25.814;2024-03-02T08:54:35;13.73;;;10.02;;
59649;SDS011;46162;57.568;25.814;2024-03-02T08:57:05;15.48;;;10.27;;
59649;SDS011;46162;57.568;25.814;2024-03-02T09:02:55;13.07;;;9.65;;
59649;SDS011;46162;57.568;25.814;2024-03-02T09:06:17;12.02;;;9.07;;
59649;SDS011;46162;57.568;25.814;2024-03-02T09:09:29;11.13;;;8.57;;
59649;SDS011;46162;57.568;25.814;2024-03-02T09:11:59;11.07;;;8.52;;
59649;SDS011;46162;57.568;25.814;2024-03-02T09:14:48;8.85;;;6.82;;
59649;SDS011;46162;57.568;25.814;2024-03-02T09:17:16;9.48;;;6.32;;
59649;SDS011;46162;57.568;25.814;2024-03-02T09:19:54;7.95;;;5.82;;
59649;SDS011;46162;57.568;25.814;2024-03-02T09:22:37;8.57;;;5.72;;
59649;SDS011;46162;57.568;25.814;2024-03-02T09:25:11;8.05;;;5.78;;
59649;SDS011;46162;57.568;25.814;2024-03-02T09:27:39;7.50;;;5.28;;
59649;SDS011;46162;57.568;25.814;2024-03-02T09:31:05;6.95;;;3.95;;
59649;SDS011;46162;57.568;25.814;2024-03-02T09:34:09;6.03;;;4.05;;
59649;SDS011;46162;57.568;25.814;2024-03-02T09:39:35;6.07;;;4.07;;
59649;SDS011;46162;57.568;25.814;2024-03-02T09:44:59;6.22;;;3.35;;
59649;SDS011;46162;57.568;25.814;2024-03-02T09:47:37;5.90;;;3.42;;
59649;SDS011;46162;57.568;25.814;2024-03-02T09:50:06;4.88;;;2.92;;
59649;SDS011;46162;57.568;25.814;2024-03-02T09:55:24;5.47;;;2.80;;
59649;SDS011;46162;57.568;25.814;2024-03-02T09:57:56;5.20;;;2.88;;
59649;SDS011;46162;57.568;25.814;2024-03-02T10:00:28;4.60;;;2.75;;
59649;SDS011;46162;57.568;25.814;2024-03-02T10:03:49;4.63;;;2.85;;
59649;SDS011;46162;57.568;25.814;2024-03-02T10:06:47;4.13;;;2.30;;
59649;SDS011;46162;57.568;25.814;2024-03-02T10:09:26;5.35;;;2.60;;
59649;SDS011;46162;57.568;25.814;2024-03-02T10:12:03;4.65;;;2.35;;
59649;SDS011;46162;57.568;25.814;2024-03-02T10:17:59;4.25;;;2.30;;
59649;SDS011;46162;57.568;25.814;2024-03-02T10:20:32;4.88;;;2.45;;
59649;SDS011;46162;57.568;25.814;2024-03-02T10:23:12;4.90;;;2.90;;
59649;SDS011;46162;57.568;25.814;2024-03-02T10:25:43;5.10;;;2.78;;
59649;SDS011;46162;57.568;25.814;2024-03-02T10:28:27;4.93;;;2.88;;
59649;SDS011;46162;57.568;25.814;2024-03-02T10:31:02;5.10;;;2.55;;
59649;SDS011;46162;57.568;25.814;2024-03-02T10:37:10;5.40;;;2.63;;
59649;SDS011;46162;57.568;25.814;2024-03-02T10:43:39;5.07;;;2.67;;
59649;SDS011;46162;57.568;25.814;2024-03-02T10:50:35;5.43;;;3.03;;
59649;SDS011;46162;57.568;25.814;2024-03-02T10:53:24;4.18;;;2.38;;
59649;SDS011;46162;57.568;25.814;2024-03-02T10:56:26;3.80;;;2.15;;
59649;SDS011;46162;57.568;25.814;2024-03-02T11:02:46;4.50;;;1.98;;
59649;SDS011;46162;57.568;25.814;2024-03-02T11:05:52;4.57;;;2.15;;
59649;SDS011;46162;57.568;25.814;2024-03-02T11:09:04;4.75;;;2.38;;
59649;SDS011;46162;57.568;25.814;2024-03-02T11:12:28;5.45;;;2.63;;
59649;SDS011;46162;57.568;25.814;2024-03-02T11:15:22;4.53;;;2.35;;
59649;SDS011;46162;57.568;25.814;2024-03-02T11:18:32;5.00;;;2.22;;
59649;SDS011;46162;57.568;25.814;2024-03-02T11:24:55;4.75;;;2.47;;
59649;SDS011;46162;57.568;25.814;2024-03-02T11:30:59;4.60;;;2.58;;
59649;SDS011;46162;57.568;25.814;2024-03-02T11:33:31;6.00;;;2.70;;
59649;SDS011;46162;57.568;25.814;2024-03-02T11:40:48;5.45;;;2.70;;
59649;SDS011;46162;57.568;25.814;2024-03-02T11:43:28;5.65;;;3.08;;
59649;SDS011;46162;57.568;25.814;2024-03-02T11:46:16;6.07;;;2.90;;
59649;SDS011;46162;57.568;25.814;2024-03-02T11:49:18;5.78;;;2.85;;
59649;SDS011;46162;57.568;25.814;2024-03-02T11:52:30;7.32;;;3.50;;
59649;SDS011;46162;57.568;25.814;2024-03-02T11:58:39;5.32;;;2.92;;
59649;SDS011;46162;57.568;25.814;2024-03-02T12:01:12;6.55;;;3.85;;
59649;SDS011;46162;57.568;25.814;2024-03-02T12:03:44;7.38;;;4.18;;
59649;SDS011;46162;57.568;25.814;2024-03-02T12:06:56;9.35;;;3.60;;
59649;SDS011;46162;57.568;25.814;2024-03-02T12:10:01;9.38;;;4.05;;
59649;SDS011;46162;57.568;25.814;2024-03-02T12:12:37;7.13;;;3.75;;
59649;SDS011;46162;57.568;25.814;2024-03-02T12:15:27;7.72;;;4.32;;
59649;SDS011;46162;57.568;25.814;2024-03-02T12:21:12;11.82;;;4.90;;
59649;SDS011;46162;57.568;25.814;2024-03-02T12:23:42;7.60;;;4.57;;
59649;SDS011;46162;57.568;25.814;2024-03-02T12:33:45;11.10;;;5.72;;
59649;SDS011;46162;57.568;25.814;2024-03-02T12:37:06;10.25;;;6.32;;
59649;SDS011;46162;57.568;25.814;2024-03-02T12:46:14;13.13;;;6.10;;
59649;SDS011;46162;57.568;25.814;2024-03-02T12:52:25;9.70;;;5.93;;
59649;SDS011;46162;57.568;25.814;2024-03-02T12:55:41;10.73;;;6.40;;
59649;SDS011;46162;57.568;25.814;2024-03-02T12:58:45;11.30;;;6.38;;
59649;SDS011;46162;57.568;25.814;2024-03-02T13:01:23;11.02;;;6.82;;
59649;SDS011;46162;57.568;25.814;2024-03-02T13:04:17;13.40;;;7.15;;
59649;SDS011;46162;57.568;25.814;2024-03-02T13:07:05;13.07;;;6.88;;
59649;SDS011;46162;57.568;25.814;2024-03-02T13:09:40;10.25;;;6.05;;
59649;SDS011;46162;57.568;25.814;2024-03-02T13:12:10;10.95;;;6.50;;
59649;SDS011;46162;57.568;25.814;2024-03-02T13:14:39;11.52;;;6.10;;
59649;SDS011;46162;57.568;25.814;2024-03-02T13:17:20;11.95;;;6.90;;
59649;SDS011;46162;57.568;25.814;2024-03-02T13:20:14;12.23;;;6.15;;
59649;SDS011;46162;57.568;25.814;2024-03-02T13:29:08;11.75;;;6.32;;
59649;SDS011;46162;57.568;25.814;2024-03-02T13:31:41;10.63;;;6.18;;
59649;SDS011;46162;57.568;25.814;2024-03-02T13:34:24;11.10;;;6.07;;
59649;SDS011;46162;57.568;25.814;2024-03-02T13:37:16;11.45;;;5.47;;
59649;SDS011;46162;57.568;25.814;2024-03-02T13:40:08;9.55;;;6.15;;
59649;SDS011;46162;57.568;25.814;2024-03-02T13:47:44;11.40;;;5.50;;
59649;SDS011;46162;57.568;25.814;2024-03-02T13:50:16;10.23;;;5.43;;
59649;SDS011;46162;57.568;25.814;2024-03-02T13:52:45;11.52;;;6.00;;
59649;SDS011;46162;57.568;25.814;2024-03-02T13:55:18;12.13;;;5.90;;
59649;SDS011;46162;57.568;25.814;2024-03-02T14:01:49;11.15;;;5.43;;
59649;SDS011;46162;57.568;25.814;2024-03-02T14:07:34;10.38;;;5.40;;
59649;SDS011;46162;57.568;25.814;2024-03-02T14:10:03;8.68;;;4.78;;
59649;SDS011;46162;57.568;25.814;2024-03-02T14:12:42;12.00;;;5.45;;
59649;SDS011;46162;57.568;25.814;2024-03-02T14:15:46;8.98;;;4.72;;
59649;SDS011;46162;57.568;25.814;2024-03-02T14:18:15;9.30;;;4.53;;
59649;SDS011;46162;57.568;25.814;2024-03-02T14:20:49;8.13;;;4.95;;
59649;SDS011;46162;57.568;25.814;2024-03-02T14:23:20;11.45;;;4.88;;
59649;SDS011;46162;57.568;25.814;2024-03-02T14:26:29;8.15;;;4.38;;
59649;SDS011;46162;57.568;25.814;2024-03-02T14:29:21;9.15;;;4.50;;
59649;SDS011;46162;57.568;25.814;2024-03-02T14:32:24;7.95;;;4.20;;
59649;SDS011;46162;57.568;25.814;2024-03-02T14:34:53;9.82;;;4.40;;
59649;SDS011;46162;57.568;25.814;2024-03-02T14:37:33;7.07;;;4.07;;
59649;SDS011;46162;57.568;25.814;2024-03-02T14:40:09;8.05;;;3.92;;
59649;SDS011;46162;57.568;25.814;2024-03-02T14:42:43;7.55;;;3.47;;
59649;SDS011;46162;57.568;25.814;2024-03-02T14:45:17;7.80;;;3.90;;
59649;SDS011;46162;57.568;25.814;2024-03-02T14:47:49;9.45;;;4.22;;
59649;SDS011;46162;57.568;25.814;2024-03-02T14:50:36;8.00;;;4.18;;
59649;SDS011;46162;57.568;25.814;2024-03-02T14:53:25;8.55;;;4.38;;
59649;SDS011;46162;57.568;25.814;2024-03-02T14:56:32;9.90;;;4.30;;
59649;SDS011;46162;57.568;25.814;2024-03-02T15:05:04;9.05;;;4.03;;
59649;SDS011;46162;57.568;25.814;2024-03-02T15:07:54;8.02;;;3.60;;
59649;SDS011;46162;57.568;25.814;2024-03-02T15:10:42;12.07;;;4.57;;
59649;SDS011;46162;57.568;25.814;2024-03-02T15:13:28;9.15;;;3.90;;
59649;SDS011;46162;57.568;25.814;2024-03-02T15:16:05;6.18;;;3.53;;
59649;SDS011;46162;57.568;25.814;2024-03-02T15:18:42;8.15;;;4.30;;
59649;SDS011;46162;57.568;25.814;2024-03-02T15:21:15;10.48;;;4.82;;
59649;SDS011;46162;57.568;25.814;2024-03-02T15:23:49;11.35;;;4.40;;
59649;SDS011;46162;57.568;25.814;2024-03-02T15:26:22;7.95;;;3.75;;
59649;SDS011;46162;57.568;25.814;2024-03-02T15:28:56;8.63;;;4.28;;
59649;SDS011;46162;57.568;25.814;2024-03-02T15:31:46;11.25;;;4.80;;
59649;SDS011;46162;57.568;25.814;2024-03-02T15:34:20;7.95;;;4.40;;
59649;SDS011;46162;57.568;25.814;2024-03-02T15:37:55;11.10;;;4.20;;
59649;SDS011;46162;57.568;25.814;2024-03-02T15:40:25;13.10;;;4.55;;
59649;SDS011;46162;57.568;25.814;2024-03-02T15:47:24;9.07;;;4.43;;
59649;SDS011;46162;57.568;25.814;2024-03-02T15:50:11;10.32;;;4.28;;
59649;SDS011;46162;57.568;25.814;2024-03-02T15:53:15;11.23;;;4.22;;
59649;SDS011;46162;57.568;25.814;2024-03-02T15:56:03;10.95;;;5.28;;
59649;SDS011;46162;57.568;25.814;2024-03-02T15:59:14;12.77;;;4.90;;
59649;SDS011;46162;57.568;25.814;2024-03-02T16:01:46;9.68;;;4.88;;
59649;SDS011;46162;57.568;25.814;2024-03-02T16:07:43;14.88;;;4.95;;
59649;SDS011;46162;57.568;25.814;2024-03-02T16:10:25;8.63;;;4.32;;
59649;SDS011;46162;57.568;25.814;2024-03-02T16:13:09;11.63;;;4.20;;
59649;SDS011;46162;57.568;25.814;2024-03-02T16:19:56;11.45;;;3.65;;
59649;SDS011;46162;57.568;25.814;2024-03-02T16:22:38;10.07;;;4.18;;
59649;SDS011;46162;57.568;25.814;2024-03-02T16:25:37;9.23;;;4.15;;
59649;SDS011;46162;57.568;25.814;2024-03-02T16:28:43;9.23;;;3.67;;
59649;SDS011;46162;57.568;25.814;2024-03-02T16:31:16;11.20;;;4.13;;
59649;SDS011;46162;57.568;25.814;2024-03-02T16:33:48;7.68;;;3.75;;
59649;SDS011;46162;57.568;25.814;2024-03-02T16:40:10;9.98;;;4.45;;
59649;SDS011;46162;57.568;25.814;2024-03-02T16:42:41;8.27;;;3.78;;
59649;SDS011;46162;57.568;25.814;2024-03-02T16:45:23;8.90;;;3.67;;
59649;SDS011;46162;57.568;25.814;2024-03-02T16:48:06;9.05;;;3.45;;
59649;SDS011;46162;57.568;25.814;2024-03-02T16:50:57;10.07;;;4.50;;
59649;SDS011;46162;57.568;25.814;2024-03-02T16:54:11;8.77;;;3.55;;
59649;SDS011;46162;57.568;25.814;2024-03-02T17:00:15;7.68;;;3.08;;
59649;SDS011;46162;57.568;25.814;2024-03-02T17:03:11;9.52;;;3.30;;
59649;SDS011;46162;57.568;25.814;2024-03-02T17:05:40;8.10;;;3.47;;
59649;SDS011;46162;57.568;25.814;2024-03-02T17:08:32;8.43;;;3.45;;
59649;SDS011;46162;57.568;25.814;2024-03-02T17:11:19;7.97;;;3.05;;
59649;SDS011;46162;57.568;25.814;2024-03-02T17:16:53;7.45;;;3.28;;
59649;SDS011;46162;57.568;25.814;2024-03-02T17:19:23;7.85;;;2.80;;
59649;SDS011;46162;57.568;25.814;2024-03-02T17:22:30;9.52;;;3.35;;
59649;SDS011;46162;57.568;25.814;2024-03-02T17:25:23;9.10;;;3.38;;
59649;SDS011;46162;57.568;25.814;2024-03-02T17:31:56;9.25;;;3.28;;
59649;SDS011;46162;57.568;25.814;2024-03-02T17:35:13;6.07;;;2.70;;
59649;SDS011;46162;57.568;25.814;2024-03-02T17:37:46;6.38;;;2.83;;
59649;SDS011;46162;57.568;25.814;2024-03-02T17:40:52;8.07;;;3.20;;
59649;SDS011;46162;57.568;25.814;2024-03-02T17:43:46;7.95;;;3.30;;
59649;SDS011;46162;57.568;25.814;2024-03-02T17:46:17;7.18;;;2.88;;
59649;SDS011;46162;57.568;25.814;2024-03-02T17:53:58;6.63;;;3.03;;
59649;SDS011;46162;57.568;25.814;2024-03-02T17:56:53;6.20;;;2.78;;
59649;SDS011;46162;57.568;25.814;2024-03-02T17:59:24;6.55;;;2.67;;
59649;SDS011;46162;57.568;25.814;2024-03-02T18:02:43;7.57;;;2.92;;
59649;SDS011;46162;57.568;25.814;2024-03-02T18:05:19;9.07;;;2.95;;
59649;SDS011;46162;57.568;25.814;2024-03-02T18:07:48;9.02;;;3.13;;
59649;SDS011;46162;57.568;25.814;2024-03-02T18:13:22;11.73;;;3.38;;
59649;SDS011;46162;57.568;25.814;2024-03-02T18:19:34;7.53;;;3.40;;
59649;SDS011;46162;57.568;25.814;2024-03-02T18:26:04;8.77;;;3.20;;
59649;SDS011;46162;57.568;25.814;2024-03-02T18:28:59;7.72;;;3.45;;
59649;SDS011;46162;57.568;25.814;2024-03-02T18:31:46;12.10;;;3.70;;
59649;SDS011;46162;57.568;25.814;2024-03-02T18:37:20;8.77;;;3.60;;
59649;SDS011;46162;57.568;25.814;2024-03-02T18:39:56;9.15;;;4.18;;
59649;SDS011;46162;57.568;25.814;2024-03-02T18:42:57;8.25;;;3.60;;
59649;SDS011;46162;57.568;25.814;2024-03-02T18:45:56;9.57;;;4.10;;
59649;SDS011;46162;57.568;25.814;2024-03-02T18:49:13;7.47;;;3.55;;
59649;SDS011;46162;57.568;25.814;2024-03-02T18:51:44;10.07;;;3.40;;
59649;SDS011;46162;57.568;25.814;2024-03-02T19:01:22;10.02;;;3.97;;
59649;SDS011;46162;57.568;25.814;2024-03-02T19:04:12;7.15;;;3.40;;
59649;SDS011;46162;57.568;25.814;2024-03-02T19:06:42;8.75;;;3.50;;
59649;SDS011;46162;57.568;25.814;2024-03-02T19:09:15;8.30;;;3.55;;
59649;SDS011;46162;57.568;25.814;2024-03-02T19:12:02;6.97;;;3.60;;
59649;SDS011;46162;57.568;25.814;2024-03-02T19:15:24;9.50;;;3.83;;
59649;SDS011;46162;57.568;25.814;2024-03-02T19:18:27;9.70;;;4.65;;
59649;SDS011;46162;57.568;25.814;2024-03-02T19:21:01;10.00;;;4.30;;
59649;SDS011;46162;57.568;25.814;2024-03-02T19:23:50;9.35;;;3.70;;
59649;SDS011;46162;57.568;25.814;2024-03-02T19:26:23;11.70;;;5.00;;
59649;SDS011;46162;57.568;25.814;2024-03-02T19:28:53;9.25;;;4.18;;
59649;SDS011;46162;57.568;25.814;2024-03-02T19:32:23;11.70;;;4.60;;
59649;SDS011;46162;57.568;25.814;2024-03-02T19:34:58;10.87;;;4.27;;
59649;SDS011;46162;57.568;25.814;2024-03-02T19:37:52;10.18;;;4.53;;
59649;SDS011;46162;57.568;25.814;2024-03-02T19:40:31;9.90;;;4.40;;
59649;SDS011;46162;57.568;25.814;2024-03-02T19:43:18;9.10;;;3.92;;
59649;SDS011;46162;57.568;25.814;2024-03-02T19:45:53;9.75;;;3.97;;
59649;SDS011;46162;57.568;25.814;2024-03-02T19:48:33;13.68;;;5.15;;
59649;SDS011;46162;57.568;25.814;2024-03-02T19:51:12;12.43;;;5.25;;
59649;SDS011;46162;57.568;25.814;2024-03-02T19:59:20;13.55;;;5.30;;
59649;SDS011;46162;57.568;25.814;2024-03-02T20:05:01;14.25;;;5.45;;
59649;SDS011;46162;57.568;25.814;2024-03-02T20:07:38;12.77;;;6.03;;
59649;SDS011;46162;57.568;25.814;2024-03-02T20:11:01;13.65;;;6.65;;
59649;SDS011;46162;57.568;25.814;2024-03-02T20:13:47;16.42;;;6.57;;
59649;SDS011;46162;57.568;25.814;2024-03-02T20:23:41;17.02;;;6.60;;
59649;SDS011;46162;57.568;25.814;2024-03-02T20:29:01;17.15;;;7.50;;
59649;SDS011;46162;57.568;25.814;2024-03-02T20:32:11;16.08;;;7.28;;
59649;SDS011;46162;57.568;25.814;2024-03-02T20:34:39;14.77;;;6.95;;
59649;SDS011;46162;57.568;25.814;2024-03-02T20:37:39;17.20;;;7.13;;
59649;SDS011;46162;57.568;25.814;2024-03-02T20:43:51;15.88;;;7.38;;
59649;SDS011;46162;57.568;25.814;2024-03-02T20:49:23;13.90;;;6.30;;
59649;SDS011;46162;57.568;25.814;2024-03-02T20:51:53;14.82;;;7.53;;
59649;SDS011;46162;57.568;25.814;2024-03-02T20:57:55;16.42;;;7.88;;
59649;SDS011;46162;57.568;25.814;2024-03-02T21:06:20;14.10;;;6.45;;
59649;SDS011;46162;57.568;25.814;2024-03-02T21:09:34;12.57;;;6.97;;
59649;SDS011;46162;57.568;25.814;2024-03-02T21:12:08;18.02;;;8.15;;
59649;SDS011;46162;57.568;25.814;2024-03-02T21:14:40;14.50;;;7.53;;
59649;SDS011;46162;57.568;25.814;2024-03-02T21:17:23;16.02;;;8.07;;
59649;SDS011;46162;57.568;25.814;2024-03-02T21:19:53;15.30;;;7.50;;
59649;SDS011;46162;57.568;25.814;2024-03-02T21:22:59;13.93;;;7.72;;
59649;SDS011;46162;57.568;25.814;2024-03-02T21:25:30;16.23;;;8.45;;
59649;SDS011;46162;57.568;25.814;2024-03-02T21:28:02;14.85;;;8.35;;